Time;durP1;ratioP1;P1;durP2;ratioP2;P2;SDS_P1;SDS_P2;PMS_P1;PMS_P2;Temp;Humidity;BMP_temperature;BMP_pressure;BME280_temperature;BME280_humidity;BME280_pressure;Samples;Min_cycle;Max_cycle;Signal;HPM_P1;HPM_P2
2022/11/21 00:01:37;;;;;;;4.15;3.50;;;;;;;20.17;26.49;99236.34;4495255;28;20406;-64
2022/11/21 00:03:48;;;;;;;3.85;3.45;;;;;;;20.28;26.35;99260.19;4496082;28;20038;-65
2022/11/21 00:06:02;;;;;;;4.00;3.60;;;;;;;20.29;26.28;99273.28;4496093;28;20496;-65
2022/11/21 00:08:15;;;;;;;4.18;3.78;;;;;;;20.29;26.31;99264.69;4496944;28;20973;-64
2022/11/21 00:10:25;;;;;;;4.70;4.10;;;;;;;20.27;26.60;99269.97;4495475;28;20114;-64
2022/11/21 00:12:35;;;;;;;4.15;3.60;;;;;;;20.27;26.47;99259.34;4496532;28;20500;-65
2022/11/21 00:14:46;;;;;;;4.70;4.20;;;;;;;20.26;26.35;99276.94;4498712;28;20073;-65
2022/11/21 00:16:56;;;;;;;4.53;3.85;;;;;;;20.25;26.30;99272.41;4495824;28;20042;-65
2022/11/21 00:19:07;;;;;;;4.72;4.20;;;;;;;20.28;26.23;99288.81;4497514;28;20049;-64
2022/11/21 00:21:19;;;;;;;4.72;4.22;;;;;;;20.25;26.46;99286.72;4495752;28;20042;-65
2022/11/21 00:23:29;;;;;;;4.78;4.28;;;;;;;20.26;26.29;99285.53;4497477;28;20038;-64
2022/11/21 00:25:40;;;;;;;4.93;4.13;;;;;;;20.26;26.34;99297.81;4499973;28;20042;-64
2022/11/21 00:27:51;;;;;;;5.00;4.30;;;;;;;20.24;26.14;99290.81;4500893;28;20061;-65
2022/11/21 00:30:03;;;;;;;4.90;4.40;;;;;;;20.26;26.11;99292.09;4507660;28;20034;-64
2022/11/21 00:32:13;;;;;;;5.25;4.40;;;;;;;20.24;26.22;99296.56;4500494;28;20053;-64
2022/11/21 00:34:23;;;;;;;4.95;4.35;;;;;;;20.26;26.21;99302.72;4498420;28;20109;-64
2022/11/21 00:36:34;;;;;;;5.10;4.40;;;;;;;20.24;26.18;99294.53;4498486;28;20034;-65
2022/11/21 00:38:44;;;;;;;5.47;4.70;;;;;;;20.26;26.08;99302.72;4499378;28;20037;-65
2022/11/21 00:40:55;;;;;;;4.90;4.40;;;;;;;20.23;26.30;99310.03;4499437;28;20045;-64
2022/11/21 00:43:05;;;;;;;4.38;3.83;;;;;;;20.25;26.11;99301.06;4497344;28;20038;-64
2022/11/21 00:45:16;;;;;;;5.00;4.35;;;;;;;20.26;26.24;99308.44;4496972;28;20042;-65
2022/11/21 00:47:26;;;;;;;4.85;4.18;;;;;;;20.25;26.19;99310.47;4497749;28;20040;-65
2022/11/21 00:49:37;;;;;;;4.72;4.13;;;;;;;20.25;25.93;99307.63;4500069;28;20042;-65
2022/11/21 00:51:47;;;;;;;5.18;4.50;;;;;;;20.19;26.08;99303.47;4499034;28;20033;-64
2022/11/21 00:54:06;;;;;;;5.15;4.45;;;;;;;20.25;26.06;99313.34;4499081;28;20042;-64
2022/11/21 00:56:25;;;;;;;5.20;4.50;;;;;;;20.26;26.28;99314.19;4499718;28;20957;-65
2022/11/21 00:58:56;;;;;;;4.75;4.22;;;;;;;20.26;26.01;99315.00;4498616;28;20140;-65
2022/11/21 01:01:12;;;;;;;4.70;3.95;;;;;;;20.22;26.23;99304.72;4498992;28;20625;-64
2022/11/21 01:03:23;;;;;;;4.35;3.95;;;;;;;20.25;26.20;99323.97;4499701;28;20069;-65
2022/11/21 01:09:03;;;;;;;4.93;4.07;;;;;;;20.25;26.13;99326.84;4488887;28;20053;-64
2022/11/21 01:11:16;;;;;;;5.18;4.40;;;;;;;20.25;26.14;99326.84;4498908;28;20045;-64
2022/11/21 01:13:27;;;;;;;4.40;3.90;;;;;;;20.25;26.14;99332.56;4498834;28;20030;-64
2022/11/21 01:15:37;;;;;;;4.45;3.83;;;;;;;20.24;26.02;99331.78;4500266;28;20124;-64
2022/11/21 01:17:56;;;;;;;4.55;4.00;;;;;;;20.22;26.08;99325.59;4497968;28;20367;-64
2022/11/21 01:20:07;;;;;;;4.88;4.07;;;;;;;20.25;26.03;99329.69;4499108;28;20125;-64
2022/11/21 01:22:18;;;;;;;4.63;4.13;;;;;;;20.23;26.03;99330.09;4499195;28;20085;-64
2022/11/21 01:24:28;;;;;;;4.55;3.97;;;;;;;20.21;25.99;99335.44;4498310;28;20041;-64
2022/11/21 01:26:39;;;;;;;4.40;3.90;;;;;;;20.24;26.03;99348.97;4499134;28;20367;-64
2022/11/21 01:29:12;;;;;;;4.32;3.92;;;;;;;20.25;26.16;99344.03;4499043;28;20069;-64
2022/11/21 01:31:28;;;;;;;4.50;3.97;;;;;;;20.24;25.98;99351.81;4498222;28;20538;-64
2022/11/21 01:33:39;;;;;;;4.53;4.00;;;;;;;20.23;25.97;99350.16;4499232;28;20034;-64
2022/11/21 01:35:49;;;;;;;4.15;3.75;;;;;;;20.22;25.94;99350.56;4496831;28;20037;-64
2022/11/21 01:38:00;;;;;;;4.40;3.95;;;;;;;20.24;26.06;99359.59;4498581;28;20041;-64
2022/11/21 01:40:11;;;;;;;4.55;4.03;;;;;;;20.23;26.05;99357.94;4500087;28;20087;-64
2022/11/21 01:42:21;;;;;;;4.45;3.80;;;;;;;20.24;26.33;99362.44;4499311;28;20030;-65
2022/11/21 01:44:50;;;;;;;4.05;3.65;;;;;;;20.23;26.04;99367.34;4501664;28;20466;-64
2022/11/21 01:47:00;;;;;;;4.43;3.97;;;;;;;20.23;26.06;99372.28;4490085;28;20030;-64
2022/11/21 01:49:25;;;;;;;4.05;3.65;;;;;;;20.22;26.18;99359.97;4498861;28;20034;-64
2022/11/21 01:51:40;;;;;;;4.20;3.58;;;;;;;20.24;26.03;99362.44;4497260;28;20042;-64
2022/11/21 01:54:30;;;;;;;4.85;4.25;;;;;;;20.24;26.15;99362.44;4496664;28;20104;-64
2022/11/21 01:56:58;;;;;;;4.80;4.03;;;;;;;20.23;26.25;99357.94;4498769;28;20037;-64
2022/11/21 01:59:16;;;;;;;4.97;4.38;;;;;;;20.21;26.08;99369.81;4497402;28;20836;-64
2022/11/21 02:01:28;;;;;;;5.15;4.57;;;;;;;20.23;26.07;99378.00;4498387;28;20046;-65
2022/11/21 02:03:42;;;;;;;4.78;4.28;;;;;;;20.20;26.15;99367.34;4499939;28;20131;-65
2022/11/21 02:05:54;;;;;;;5.20;4.60;;;;;;;20.22;26.06;99376.34;4497346;28;20146;-64
2022/11/21 02:08:09;;;;;;;4.85;4.32;;;;;;;20.21;26.07;99371.84;4497860;28;20033;-65
2022/11/21 02:10:21;;;;;;;5.90;4.90;;;;;;;20.19;26.06;99372.22;4515344;28;20042;-64
2022/11/21 02:12:51;;;;;;;5.50;4.90;;;;;;;20.21;26.16;99371.84;4496823;28;20456;-64
2022/11/21 02:15:02;;;;;;;5.68;4.85;;;;;;;20.20;26.28;99373.06;4498216;28;20045;-64
2022/11/21 02:17:13;;;;;;;5.35;4.82;;;;;;;20.18;26.19;99369.75;4497064;28;20046;-64
2022/11/21 02:19:48;;;;;;;5.85;4.75;;;;;;;20.18;26.21;99369.75;4499149;28;20410;-64
2022/11/21 02:22:44;;;;;;;5.45;4.82;;;;;;;20.22;26.20;99370.59;4497339;28;20140;-64
2022/11/21 02:25:04;;;;;;;5.60;5.03;;;;;;;20.19;26.09;99377.13;4472404;28;21003;-65
2022/11/21 02:27:15;;;;;;;5.13;4.63;;;;;;;20.20;26.29;99378.81;4498852;28;20053;-64
2022/11/21 02:29:26;;;;;;;5.47;4.90;;;;;;;20.18;26.47;99375.50;4497026;28;20077;-64
2022/11/21 02:31:36;;;;;;;5.45;4.95;;;;;;;20.16;26.16;99378.75;4511332;28;20141;-64
2022/11/21 02:33:47;;;;;;;5.30;4.80;;;;;;;20.20;26.06;99390.25;4496026;28;20080;-64
2022/11/21 02:35:59;;;;;;;5.35;4.60;;;;;;;20.20;26.21;99385.34;4498038;28;20034;-64
2022/11/21 02:38:23;;;;;;;5.22;4.53;;;;;;;20.19;26.24;99400.88;4496881;28;20034;-64
2022/11/21 02:40:39;;;;;;;5.32;4.60;;;;;;;20.20;26.06;99401.72;4498091;28;20068;-64
2022/11/21 02:42:59;;;;;;;5.45;4.78;;;;;;;20.21;26.14;99395.59;4497766;28;21329;-64
2022/11/21 02:45:22;;;;;;;5.05;4.47;;;;;;;20.21;26.16;99397.63;4497426;28;20603;-64
2022/11/21 02:47:34;;;;;;;5.43;4.85;;;;;;;20.14;26.22;99392.63;4496799;28;20066;-64
2022/11/21 02:49:55;;;;;;;5.22;4.43;;;;;;;20.14;26.25;99391.81;4498409;28;20545;-64
2022/11/21 02:52:06;;;;;;;6.13;5.25;;;;;;;20.17;26.25;99399.66;4498579;28;20041;-64
2022/11/21 02:54:16;;;;;;;5.38;4.88;;;;;;;20.20;26.19;99402.53;4498433;28;20501;-63
2022/11/21 02:56:26;;;;;;;5.15;4.50;;;;;;;20.16;26.17;99383.66;4496629;28;20188;-65
2022/11/21 02:58:37;;;;;;;4.60;4.15;;;;;;;20.17;26.20;99385.31;4498110;28;20034;-65
2022/11/21 03:00:48;;;;;;;5.78;5.00;;;;;;;20.18;25.87;99387.78;4499234;28;20042;-65
2022/11/21 03:02:58;;;;;;;5.80;5.03;;;;;;;20.18;26.22;99376.31;4496906;28;20113;-64
2022/11/21 03:05:10;;;;;;;5.75;5.07;;;;;;;20.18;26.13;99376.31;4498474;28;20087;-64
2022/11/21 03:07:21;;;;;;;5.13;4.63;;;;;;;20.18;26.15;99376.31;4496556;28;20988;-65
2022/11/21 03:09:31;;;;;;;5.70;4.97;;;;;;;20.20;26.09;99375.94;4487728;28;20021;-64
2022/11/21 03:11:41;;;;;;;5.80;5.00;;;;;;;20.14;26.11;99363.16;4496342;28;20038;-65
2022/11/21 03:13:52;;;;;;;5.68;5.05;;;;;;;20.19;26.20;99372.22;4497326;28;20034;-65
2022/11/21 03:16:02;;;;;;;5.97;5.30;;;;;;;20.18;26.16;99366.91;4489781;28;20369;-65
2022/11/21 03:18:13;;;;;;;6.15;4.97;;;;;;;20.18;26.11;99364.88;4497290;28;20695;-65
2022/11/21 03:20:23;;;;;;;5.43;4.80;;;;;;;20.19;26.19;99371.41;4497060;28;20046;-65
2022/11/21 03:22:34;;;;;;;5.63;4.97;;;;;;;20.19;26.09;99371.41;4496709;28;20076;-65
2022/11/21 03:24:44;;;;;;;5.70;5.03;;;;;;;20.16;26.41;99383.66;4496416;28;20050;-64
2022/11/21 03:26:54;;;;;;;6.43;5.20;;;;;;;20.19;26.22;99394.31;4496497;28;20113;-64
2022/11/21 03:29:06;;;;;;;6.15;5.30;;;;;;;20.19;26.13;99383.69;4488145;28;20046;-65
2022/11/21 03:31:16;;;;;;;5.85;5.05;;;;;;;20.17;26.16;99376.72;4487394;28;20039;-66
2022/11/21 03:33:26;;;;;;;5.72;5.07;;;;;;;20.16;26.04;99383.66;4496609;28;20030;-64
2022/11/21 03:35:37;;;;;;;6.30;5.32;;;;;;;20.17;26.05;99380.38;4497222;28;20041;-65
2022/11/21 03:37:48;;;;;;;6.07;5.20;;;;;;;20.18;26.04;99389.81;4497402;28;20721;-65
2022/11/21 03:39:58;;;;;;;5.25;4.75;;;;;;;20.18;26.07;99398.41;4497152;28;20038;-64
2022/11/21 03:42:08;;;;;;;5.72;4.90;;;;;;;20.15;26.29;99394.28;4494997;28;20080;-64
2022/11/21 03:44:19;;;;;;;6.40;5.28;;;;;;;20.13;26.14;99395.88;4495050;28;20030;-65
2022/11/21 03:46:32;;;;;;;5.80;4.53;;;;;;;20.17;26.22;99403.31;4497478;28;20038;-65
2022/11/21 03:48:43;;;;;;;5.72;4.97;;;;;;;20.18;26.07;99407.00;4494962;28;20436;-64
2022/11/21 03:50:53;;;;;;;6.20;5.35;;;;;;;20.07;26.27;99386.00;4496624;28;20491;-65
2022/11/21 03:53:03;;;;;;;5.30;4.80;;;;;;;20.18;26.22;99412.75;4498152;28;20042;-65
2022/11/21 03:55:14;;;;;;;6.18;5.22;;;;;;;20.18;26.42;99421.34;4497623;28;20026;-65
2022/11/21 03:57:24;;;;;;;6.10;5.30;;;;;;;20.16;26.10;99415.16;4497615;28;20042;-64
2022/11/21 03:59:35;;;;;;;6.07;5.40;;;;;;;20.17;26.21;99416.84;4496999;28;20082;-65
2022/11/21 04:01:45;;;;;;;5.93;5.07;;;;;;;20.17;26.25;99422.56;4496936;28;20042;-64
2022/11/21 04:03:56;;;;;;;5.97;5.38;;;;;;;20.17;26.52;99425.44;4496676;28;20054;-65
2022/11/21 04:06:08;;;;;;;6.00;4.85;;;;;;;20.18;26.23;99424.19;4497643;28;20058;-65
2022/11/21 04:08:19;;;;;;;6.53;5.15;;;;;;;20.16;26.42;99415.16;4496370;28;20109;-65
2022/11/21 04:10:29;;;;;;;6.10;5.40;;;;;;;20.04;26.40;99393.31;4496358;28;20403;-65
2022/11/21 04:12:40;;;;;;;5.80;5.20;;;;;;;20.16;26.41;99413.13;4496762;28;20056;-65
2022/11/21 04:14:50;;;;;;;6.05;5.35;;;;;;;20.17;26.58;99417.63;4496146;28;20045;-65
2022/11/21 04:17:00;;;;;;;6.65;5.78;;;;;;;20.15;26.47;99408.59;4498243;28;20189;-65
2022/11/21 04:19:11;;;;;;;5.80;5.03;;;;;;;20.12;26.43;99412.22;4497357;28;20059;-64
2022/11/21 04:21:21;;;;;;;6.18;5.20;;;;;;;20.13;26.15;99418.78;4495950;28;20124;-64
2022/11/21 04:23:32;;;;;;;6.55;5.65;;;;;;;20.16;26.41;99430.31;4498051;28;20104;-64
2022/11/21 04:25:42;;;;;;;6.45;5.55;;;;;;;20.14;26.29;99431.91;4497546;28;20513;-65
2022/11/21 04:28:01;;;;;;;6.45;5.20;;;;;;;20.16;26.32;99438.91;4495083;28;20471;-65
2022/11/21 04:30:11;;;;;;;6.75;5.32;;;;;;;20.15;26.36;99433.59;4496414;28;20526;-64
2022/11/21 04:32:22;;;;;;;6.80;5.72;;;;;;;20.14;26.29;99427.03;4497594;28;20038;-65
2022/11/21 04:34:32;;;;;;;6.28;5.45;;;;;;;20.16;26.13;99418.03;4496616;28;20032;-65
2022/11/21 04:36:42;;;;;;;6.38;5.72;;;;;;;20.14;26.50;99414.72;4496932;28;20525;-65
2022/11/21 04:38:53;;;;;;;6.75;5.93;;;;;;;20.14;26.24;99424.16;4496583;28;20069;-64
2022/11/21 04:41:03;;;;;;;6.70;5.90;;;;;;;20.14;26.42;99420.44;4496813;28;20911;-64
2022/11/21 04:43:14;;;;;;;6.25;5.50;;;;;;;20.15;26.23;99411.47;4496828;28;20034;-64
2022/11/21 04:45:24;;;;;;;6.32;5.70;;;;;;;20.13;26.23;99421.66;4495812;28;20042;-64
2022/11/21 04:47:36;;;;;;;6.63;5.43;;;;;;;20.16;26.34;99420.91;4496098;28;20046;-64
2022/11/21 04:49:46;;;;;;;6.70;5.68;;;;;;;20.11;26.39;99422.03;4497596;28;20104;-64
2022/11/21 04:51:56;;;;;;;5.97;5.10;;;;;;;20.16;26.07;99436.06;4496784;28;20117;-62
2022/11/21 04:54:07;;;;;;;6.70;5.70;;;;;;;20.15;26.26;99428.66;4497051;28;20534;-64
2022/11/21 04:56:17;;;;;;;6.65;5.47;;;;;;;20.14;26.26;99420.44;4495537;28;20060;-64
2022/11/21 04:58:28;;;;;;;7.00;5.88;;;;;;;20.16;26.38;99421.72;4496026;28;20044;-64
2022/11/21 05:00:38;;;;;;;7.05;5.72;;;;;;;20.15;26.45;99420.06;4496679;28;20123;-64
2022/11/21 05:02:48;;;;;;;6.55;5.65;;;;;;;20.14;26.34;99418.41;4495621;28;20030;-64
2022/11/21 05:04:59;;;;;;;7.22;6.15;;;;;;;20.13;26.38;99418.78;4495861;28;20046;-64
2022/11/21 05:07:09;;;;;;;6.78;5.82;;;;;;;20.14;26.37;99415.56;4495974;28;20113;-64
2022/11/21 05:09:20;;;;;;;6.35;5.55;;;;;;;20.13;26.52;99413.06;4493698;28;20034;-65
2022/11/21 05:13:59;;;;;;;6.78;5.82;;;;;;;20.14;26.46;99412.69;4498059;28;20092;-64
2022/11/21 05:16:10;;;;;;;6.60;5.57;;;;;;;20.14;26.35;99411.84;4498279;28;20800;-64
2022/11/21 05:18:20;;;;;;;6.47;5.75;;;;;;;20.13;26.42;99411.03;4497993;28;20045;-64
2022/11/21 05:20:30;;;;;;;6.75;5.88;;;;;;;20.13;26.41;99413.06;4498011;28;20038;-64
2022/11/21 05:22:41;;;;;;;7.13;6.43;;;;;;;20.09;26.40;99401.56;4489294;28;20580;-64
2022/11/21 05:24:51;;;;;;;6.90;5.97;;;;;;;20.13;26.39;99411.03;4513239;28;20038;-64
2022/11/21 05:27:02;;;;;;;7.35;6.35;;;;;;;20.03;26.46;99390.84;4498472;28;20038;-65
2022/11/21 05:29:12;;;;;;;1.33;1.00;;;;;;;20.80;38.89;99391.63;4506581;28;20117;-64
2022/11/21 05:31:23;;;;;;;0.90;0.90;;;;;;;21.52;37.90;99404.00;4496904;28;20048;-65
2022/11/21 05:33:33;;;;;;;1.00;0.90;;;;;;;21.85;37.66;99403.78;4498536;28;20486;-65
2022/11/21 05:35:43;;;;;;;2.50;2.30;;;;;;;21.02;28.44;99399.19;4498159;28;20030;-65
2022/11/21 05:37:55;;;;;;;6.38;5.53;;;;;;;20.44;27.34;99403.97;4497729;28;20045;-65
2022/11/21 05:40:06;;;;;;;6.25;5.63;;;;;;;20.28;26.49;99404.25;4498136;28;20054;-64
2022/11/21 05:43:44;;;;;;;6.75;5.70;;;;;;;20.23;26.10;99407.47;4496708;28;20046;-65
2022/11/21 05:44:47;;;;;;;1.10;1.00;;;;;;;21.36;38.29;99423.59;4497839;28;20423;-64
2022/11/21 05:46:57;;;;;;;6.68;5.90;;;;;;;20.39;26.71;99419.50;4498941;28;20382;-64
2022/11/21 05:49:08;;;;;;;6.90;6.07;;;;;;;20.26;26.35;99414.47;4499414;28;20034;-64
2022/11/21 05:51:20;;;;;;;6.68;5.68;;;;;;;20.22;26.28;99425.03;4497854;28;20037;-64
2022/11/21 05:53:30;;;;;;;6.60;5.90;;;;;;;20.17;26.32;99417.63;4498512;28;20038;-65
2022/11/21 05:55:40;;;;;;;6.60;5.90;;;;;;;20.17;26.27;99422.56;4495875;28;20487;-65
2022/11/21 05:57:51;;;;;;;6.80;5.88;;;;;;;20.16;26.38;99426.63;4498488;28;20173;-64
2022/11/21 06:00:02;;;;;;;7.03;5.80;;;;;;;20.12;26.33;99425.75;4499366;28;20297;-64
2022/11/21 06:04:43;;;;;;;7.13;5.93;;;;;;;20.13;26.31;99427.38;4498485;28;20068;-65
2022/11/21 06:06:53;;;;;;;6.75;6.05;;;;;;;20.07;26.64;99418.31;4497082;28;20064;-64
2022/11/21 06:09:04;;;;;;;7.28;6.03;;;;;;;20.14;26.33;99420.44;4488925;28;20050;-65
2022/11/21 06:11:15;;;;;;;6.80;6.10;;;;;;;20.12;26.39;99423.69;4499604;28;20529;-65
2022/11/21 06:13:26;;;;;;;6.95;6.05;;;;;;;20.13;26.47;99419.63;4498630;28;20065;-65
2022/11/21 06:15:36;;;;;;;7.00;6.30;;;;;;;20.12;26.49;99422.88;4499021;28;20120;-64
2022/11/21 06:17:47;;;;;;;6.60;5.78;;;;;;;20.12;26.74;99428.59;4497087;28;20034;-64
2022/11/21 06:19:57;;;;;;;7.03;6.03;;;;;;;20.11;26.49;99433.50;4497523;28;20042;-64
2022/11/21 06:22:08;;;;;;;6.93;5.85;;;;;;;20.11;26.53;99424.06;4498712;28;20065;-64
2022/11/21 06:24:18;;;;;;;7.45;6.10;;;;;;;20.10;26.27;99419.56;4499272;28;20069;-64
2022/11/21 06:26:29;;;;;;;7.18;6.40;;;;;;;20.10;26.41;99425.31;4497150;28;20034;-64
2022/11/21 06:28:40;;;;;;;6.60;5.88;;;;;;;20.11;26.39;99433.50;4497801;28;20046;-64
2022/11/21 06:30:51;;;;;;;7.70;6.30;;;;;;;20.08;26.56;99419.97;4488499;28;20034;-64
2022/11/21 06:33:03;;;;;;;7.72;6.32;;;;;;;20.12;26.55;99428.59;4498217;28;20029;-64
2022/11/21 06:35:13;;;;;;;7.40;6.13;;;;;;;20.11;26.53;99436.38;4497299;28;20525;-65
2022/11/21 06:37:24;;;;;;;7.68;6.20;;;;;;;20.07;26.48;99421.19;4498118;28;20583;-64
2022/11/21 06:39:34;;;;;;;7.03;6.10;;;;;;;20.11;26.50;99424.06;4497040;28;20025;-65
2022/11/21 06:41:49;;;;;;;6.93;5.85;;;;;;;20.10;26.52;99422.44;4497023;28;20630;-64
2022/11/21 06:44:00;;;;;;;7.03;5.95;;;;;;;20.10;26.59;99414.69;4498721;28;20541;-65
2022/11/21 06:46:12;;;;;;;6.70;5.82;;;;;;;20.11;26.78;99416.31;4497570;28;20060;-64
2022/11/21 06:48:22;;;;;;;7.72;6.35;;;;;;;20.12;26.53;99417.16;4497415;28;20038;-65
2022/11/21 06:50:33;;;;;;;7.47;6.10;;;;;;;20.09;26.58;99406.47;4496778;28;20026;-64
2022/11/21 06:52:44;;;;;;;6.78;5.90;;;;;;;20.11;26.83;99409.75;4496929;28;20267;-64
2022/11/21 06:54:54;;;;;;;7.95;6.07;;;;;;;20.09;26.44;99417.94;4496424;28;20502;-64
2022/11/21 06:57:05;;;;;;;6.90;5.78;;;;;;;20.10;26.63;99414.69;4497364;28;20061;-65
2022/11/21 06:59:15;;;;;;;7.15;6.07;;;;;;;20.10;26.65;99405.25;4481808;28;20043;-66
2022/11/21 07:01:26;;;;;;;7.20;6.18;;;;;;;20.05;26.75;99405.59;4488695;28;20157;-64
2022/11/21 07:03:36;;;;;;;6.63;5.60;;;;;;;20.11;26.78;99412.63;4497963;28;20099;-64
2022/11/21 07:05:48;;;;;;;6.82;6.03;;;;;;;20.07;26.66;99408.91;4498345;28;20026;-65
2022/11/21 07:08:00;;;;;;;7.15;5.82;;;;;;;20.06;26.63;99419.53;4497886;28;20041;-65
2022/11/21 07:10:10;;;;;;;6.60;5.82;;;;;;;20.10;26.79;99425.31;4496416;28;20039;-64
2022/11/21 07:14:50;;;;;;;6.90;6.00;;;;;;;20.05;26.88;99429.34;4495338;28;20848;-64
2022/11/21 07:17:00;;;;;;;7.72;5.90;;;;;;;20.10;26.88;99440.47;4496900;28;20044;-64
2022/11/21 07:19:11;;;;;;;7.38;6.18;;;;;;;20.10;26.59;99442.50;4494702;28;20255;-64
2022/11/21 07:21:21;;;;;;;7.07;5.78;;;;;;;20.09;26.90;99441.66;4496721;28;20116;-64
2022/11/21 07:23:33;;;;;;;7.25;6.25;;;;;;;20.08;26.57;99439.19;4482800;28;20753;-65
2022/11/21 07:25:43;;;;;;;6.97;5.90;;;;;;;20.08;26.71;99439.19;4497734;28;20360;-65
2022/11/21 07:27:57;;;;;;;6.78;5.60;;;;;;;20.05;26.60;99434.25;4495023;28;20038;-65
2022/11/21 07:30:08;;;;;;;6.72;5.63;;;;;;;20.06;26.68;99444.50;4495866;28;20038;-65
2022/11/21 07:32:19;;;;;;;6.50;5.47;;;;;;;20.09;26.75;99449.44;4494399;28;20609;-65
2022/11/21 07:34:29;;;;;;;6.88;5.60;;;;;;;20.06;26.68;99447.38;4495735;28;20124;-65
2022/11/21 07:36:39;;;;;;;7.25;6.07;;;;;;;20.06;26.67;99450.22;4497845;28;20030;-64
2022/11/21 07:38:50;;;;;;;7.60;6.30;;;;;;;20.07;26.68;99461.28;4495173;28;20419;-64
2022/11/21 07:41:01;;;;;;;6.82;5.72;;;;;;;20.04;26.81;99452.66;4495823;28;20050;-64
2022/11/21 07:43:11;;;;;;;6.50;5.65;;;;;;;20.07;26.67;99457.59;4497085;28;20783;-64
2022/11/21 07:45:22;;;;;;;6.82;5.70;;;;;;;20.05;26.88;99449.41;4494765;28;20531;-64
2022/11/21 07:47:32;;;;;;;7.85;6.75;;;;;;;20.07;26.69;99449.00;4495743;28;20614;-64
2022/11/21 07:49:43;;;;;;;7.70;6.20;;;;;;;20.05;26.84;99442.84;4496540;28;20069;-64
2022/11/21 07:51:53;;;;;;;6.18;5.57;;;;;;;20.06;27.10;99442.44;4495125;28;20060;-64
2022/11/21 07:54:04;;;;;;;7.18;5.68;;;;;;;20.02;27.01;99447.31;4496046;28;20041;-65
2022/11/21 07:56:14;;;;;;;7.40;6.25;;;;;;;20.06;27.19;99435.91;4494313;28;20030;-64
2022/11/21 07:58:24;;;;;;;7.97;6.07;;;;;;;19.96;26.95;99414.53;4497068;28;20538;-65
2022/11/21 08:00:37;;;;;;;7.50;6.28;;;;;;;20.06;27.20;99430.97;4495076;28;20498;-64
2022/11/21 08:02:48;;;;;;;7.57;6.75;;;;;;;20.07;27.33;99431.81;4495052;28;20034;-64
2022/11/21 08:04:58;;;;;;;7.45;6.10;;;;;;;20.05;27.43;99428.50;4494244;28;20395;-64
2022/11/21 08:07:09;;;;;;;7.00;5.82;;;;;;;20.06;27.44;99435.91;4495470;28;20038;-64
2022/11/21 08:09:20;;;;;;;7.35;6.13;;;;;;;20.03;27.43;99425.22;4495050;28;20031;-64
2022/11/21 08:11:31;;;;;;;7.05;5.97;;;;;;;20.01;27.12;99421.94;4494679;28;20030;-64
2022/11/21 08:13:41;;;;;;;7.20;5.90;;;;;;;20.03;27.17;99425.22;4496834;28;20034;-64
2022/11/21 08:15:52;;;;;;;6.93;5.85;;;;;;;20.04;27.16;99424.81;4496275;28;20034;-64
2022/11/21 08:18:07;;;;;;;7.63;6.28;;;;;;;20.05;27.14;99422.78;4495133;28;20038;-64
2022/11/21 08:20:18;;;;;;;7.45;6.35;;;;;;;20.05;26.92;99419.91;4495182;28;20038;-64
2022/11/21 08:22:28;;;;;;;8.00;6.55;;;;;;;20.04;27.15;99413.34;4496288;28;20050;-64
2022/11/21 08:24:39;;;;;;;6.82;5.82;;;;;;;20.06;27.01;99424.44;4495528;28;20043;-64
2022/11/21 08:26:49;;;;;;;7.38;6.20;;;;;;;20.05;27.07;99419.91;4494208;28;20121;-65
2022/11/21 08:29:00;;;;;;;6.95;5.95;;;;;;;20.04;27.36;99424.00;4494074;28;20060;-65
2022/11/21 08:31:11;;;;;;;7.18;5.90;;;;;;;20.05;27.29;99417.06;4494470;28;20088;-64
2022/11/21 08:33:21;;;;;;;7.40;6.00;;;;;;;20.04;27.33;99416.22;4494317;28;20061;-64
2022/11/21 08:35:36;;;;;;;6.80;5.60;;;;;;;20.07;27.35;99426.09;4495194;28;20125;-64
2022/11/21 08:37:47;;;;;;;7.90;6.13;;;;;;;20.04;27.14;99421.16;4494564;28;20045;-64
2022/11/21 08:39:57;;;;;;;7.60;6.22;;;;;;;20.05;27.37;99423.63;4496008;28;20076;-64
2022/11/21 08:42:09;;;;;;;8.02;6.30;;;;;;;20.06;27.27;99430.19;4495035;28;20586;-64
2022/11/21 08:44:19;;;;;;;6.60;5.60;;;;;;;20.04;27.04;99429.75;4495531;28;20038;-64
2022/11/21 08:46:32;;;;;;;6.43;5.47;;;;;;;20.04;27.11;99426.88;4497672;28;20137;-64
2022/11/21 08:48:42;;;;;;;6.60;5.35;;;;;;;20.05;27.36;99425.66;4498643;28;20563;-65
2022/11/21 08:50:55;;;;;;;7.32;5.97;;;;;;;19.97;27.28;99416.16;4498678;28;20034;-64
2022/11/21 08:53:06;;;;;;;6.82;5.45;;;;;;;20.06;27.19;99430.19;4496770;28;20040;-64
2022/11/21 08:55:16;;;;;;;7.18;5.90;;;;;;;19.94;27.34;99416.94;4497888;28;20032;-64
2022/11/21 08:57:27;;;;;;;7.25;6.05;;;;;;;20.05;27.43;99428.50;4499353;28;20029;-64
2022/11/21 08:59:38;;;;;;;7.80;6.18;;;;;;;20.06;27.89;99424.44;4498474;28;20507;-64
2022/11/21 09:01:48;;;;;;;1.33;1.13;;;;;;;21.11;38.46;99431.22;4497184;28;20034;-64
2022/11/21 09:03:58;;;;;;;1.40;1.20;;;;;;;21.60;37.45;99433.56;4497618;28;20478;-64
2022/11/21 09:06:09;;;;;;;6.90;5.57;;;;;;;20.48;29.01;99431.50;4498955;28;20470;-65
2022/11/21 09:08:20;;;;;;;8.43;6.38;;;;;;;20.22;27.78;99431.59;4496923;28;20038;-64
2022/11/21 09:10:30;;;;;;;1.33;1.10;;;;;;;20.92;38.69;99428.59;4496447;28;20121;-64
2022/11/21 09:12:41;;;;;;;1.33;1.08;;;;;;;21.58;37.94;99433.97;4497244;28;20034;-64
2022/11/21 09:19:49;;;;;;;8.35;6.68;;;;;;;20.19;27.38;99420.09;4488674;28;20034;-64
2022/11/21 09:22:00;;;;;;;8.35;6.47;;;;;;;20.06;27.34;99401.53;4497621;28;20033;-64
2022/11/21 09:24:10;;;;;;;8.55;6.70;;;;;;;20.12;27.44;99417.16;4498682;28;20650;-67
2022/11/21 09:26:20;;;;;;;6.97;5.93;;;;;;;20.07;27.11;99408.91;4497805;28;20077;-64
2022/11/21 09:28:31;;;;;;;1.17;1.08;;;;;;;20.97;38.66;99407.34;4498414;28;20068;-65
2022/11/21 09:30:42;;;;;;;6.25;5.15;;;;;;;20.34;28.35;99390.41;4496167;28;20062;-62
2022/11/21 09:32:52;;;;;;;8.10;6.10;;;;;;;20.24;28.01;99408.28;4497354;28;20034;-63
2022/11/21 09:35:03;;;;;;;1.40;1.30;;;;;;;20.60;38.50;99399.66;4497599;28;20049;-64
2022/11/21 09:37:14;;;;;;;2.08;1.88;;;;;;;20.96;31.72;99395.06;4497426;28;20446;-64
2022/11/21 09:39:24;;;;;;;6.90;5.30;;;;;;;20.56;28.24;99392.25;4498623;28;20072;-63
2022/11/21 09:42:08;;;;;;;6.60;5.18;;;;;;;20.54;28.09;99406.97;4495837;28;20041;-64
2022/11/21 09:44:40;;;;;;;6.75;5.47;;;;;;;20.50;28.28;99411.03;4496645;28;20085;-64
2022/11/21 09:46:59;;;;;;;5.85;4.70;;;;;;;20.51;28.11;99407.75;4496984;28;20041;-64
2022/11/21 09:49:12;;;;;;;5.25;4.30;;;;;;;20.56;27.99;99403.69;4489128;28;20037;-64
2022/11/21 09:51:26;;;;;;;5.80;4.70;;;;;;;20.28;27.73;99369.06;4480738;28;20077;-64
2022/11/21 09:53:49;;;;;;;5.47;4.57;;;;;;;20.46;27.75;99393.78;4488746;28;20030;-64
2022/11/21 09:56:03;;;;;;;5.38;4.30;;;;;;;20.45;28.11;99385.59;4499012;28;20045;-64
2022/11/21 09:58:25;;;;;;;4.80;4.30;;;;;;;20.43;28.04;99371.66;4496153;28;20676;-64
2022/11/21 10:00:35;;;;;;;1.40;1.25;;;;;;;21.40;38.19;99369.91;4496825;28;20088;-64
2022/11/21 10:02:45;;;;;;;3.88;3.00;;;;;;;20.81;28.15;99376.06;4495253;28;20069;-64
2022/11/21 10:04:59;;;;;;;5.47;4.18;;;;;;;20.58;28.64;99384.06;4496149;28;20394;-64
2022/11/21 10:07:24;;;;;;;5.18;4.38;;;;;;;20.54;28.16;99383.19;4498308;28;20343;-64
2022/11/21 10:09:40;;;;;;;5.00;4.13;;;;;;;20.50;27.96;99377.44;4495698;28;20640;-65
2022/11/21 10:14:48;;;;;;;4.57;3.92;;;;;;;20.49;28.03;99380.69;4497376;28;20585;-64
2022/11/21 10:17:14;;;;;;;4.90;4.00;;;;;;;20.49;28.11;99392.16;4497342;28;20030;-64
2022/11/21 10:19:42;;;;;;;5.10;4.22;;;;;;;20.47;27.96;99383.16;4497168;28;20034;-64
2022/11/21 10:21:55;;;;;;;4.97;4.10;;;;;;;20.47;28.19;99368.81;4498307;28;20042;-64
2022/11/21 10:24:37;;;;;;;4.80;3.88;;;;;;;20.48;27.88;99367.59;4497720;28;20044;-64
2022/11/21 10:26:55;;;;;;;4.70;4.07;;;;;;;20.43;28.08;99359.34;4496132;28;20045;-64
2022/11/21 10:29:30;;;;;;;5.50;4.18;;;;;;;20.45;28.20;99354.06;4488264;28;20038;-64
2022/11/21 10:31:42;;;;;;;5.38;4.30;;;;;;;20.43;28.45;99345.84;4494639;28;20145;-64
2022/11/21 10:33:55;;;;;;;4.93;4.22;;;;;;;20.44;28.23;99338.91;4497388;28;20030;-65
2022/11/21 10:36:20;;;;;;;5.13;3.95;;;;;;;20.43;28.48;99340.13;4495428;28;20060;-64
2022/11/21 10:38:37;;;;;;;4.47;3.78;;;;;;;20.43;28.54;99340.13;4496236;28;20038;-65
2022/11/21 10:41:02;;;;;;;4.85;4.05;;;;;;;20.44;28.67;99343.78;4496540;28;20034;-65
2022/11/21 10:45:52;;;;;;;5.32;4.07;;;;;;;20.44;28.76;99338.06;4497817;28;20038;-64
2022/11/21 10:48:02;;;;;;;4.78;4.00;;;;;;;20.41;28.55;99336.81;4496361;28;20037;-64